Time;durP1;ratioP1;P1;durP2;ratioP2;P2;SDS_P1;SDS_P2;PMS_P1;PMS_P2;Temp;Humidity;BMP_temperature;BMP_pressure;BME280_temperature;BME280_humidity;BME280_pressure;Samples;Min_cycle;Max_cycle;Signal;HPM_P1;HPM_P2
2023/12/28 00:01:39;;;;;;;2.77;1.80;;;8.90;99.90;;;;;;5066487;28;20232;-80
2023/12/28 00:04:05;;;;;;;2.63;1.77;;;9.00;99.90;;;;;;5072053;28;20716;-79
2023/12/28 00:06:34;;;;;;;5.50;1.90;;;9.20;99.90;;;;;;5070969;28;20572;-79
2023/12/28 00:09:01;;;;;;;2.77;2.20;;;9.20;99.90;;;;;;5060800;28;20285;-79
2023/12/28 00:11:28;;;;;;;2.60;1.83;;;9.00;99.90;;;;;;5069546;28;20225;-79
2023/12/28 00:13:55;;;;;;;1.90;1.80;;;9.00;99.90;;;;;;5074629;28;20210;-80
2023/12/28 00:16:21;;;;;;;3.43;2.00;;;9.10;99.90;;;;;;5076171;28;20240;-79
2023/12/28 00:18:48;;;;;;;2.73;1.90;;;9.00;99.90;;;;;;5076701;28;20720;-80
2023/12/28 00:21:15;;;;;;;5.23;2.17;;;9.10;99.90;;;;;;5069394;28;20285;-79
2023/12/28 00:23:43;;;;;;;3.13;1.93;;;9.10;99.90;;;;;;5076581;28;20205;-80
2023/12/28 00:26:10;;;;;;;3.97;2.13;;;9.10;99.90;;;;;;5075170;28;20683;-79
2023/12/28 00:28:37;;;;;;;2.07;1.60;;;9.20;99.90;;;;;;5064189;28;20641;-79
2023/12/28 00:31:03;;;;;;;4.50;1.57;;;9.10;99.90;;;;;;5066352;28;20600;-81
2023/12/28 00:33:30;;;;;;;2.63;1.73;;;9.20;99.90;;;;;;5068960;28;20226;-79
2023/12/28 00:35:57;;;;;;;2.40;1.83;;;9.20;99.90;;;;;;5070031;28;20544;-80
2023/12/28 00:38:24;;;;;;;4.10;1.93;;;9.30;99.90;;;;;;5074594;28;20194;-80
2023/12/28 00:40:52;;;;;;;3.33;2.33;;;9.30;99.90;;;;;;5064808;28;20204;-80
2023/12/28 00:43:19;;;;;;;5.13;2.00;;;9.20;99.90;;;;;;5061700;28;20259;-80
2023/12/28 00:45:45;;;;;;;3.07;2.00;;;9.20;99.90;;;;;;5066018;28;20205;-81
2023/12/28 00:48:12;;;;;;;4.37;1.73;;;9.20;99.90;;;;;;5070063;28;20991;-79
2023/12/28 00:50:39;;;;;;;5.53;2.17;;;9.20;99.90;;;;;;5068688;28;20218;-79
2023/12/28 00:53:06;;;;;;;5.37;2.70;;;9.20;99.90;;;;;;5071247;28;20219;-80
2023/12/28 00:55:33;;;;;;;2.90;1.90;;;9.30;99.90;;;;;;5069795;28;20206;-79
2023/12/28 00:58:01;;;;;;;2.03;1.70;;;9.20;99.90;;;;;;5065996;28;20700;-79
2023/12/28 01:00:28;;;;;;;4.30;2.17;;;9.10;99.90;;;;;;5064364;28;20212;-79
2023/12/28 01:02:55;;;;;;;3.10;1.80;;;9.10;1.00;;;;;;5068897;28;20306;-80
2023/12/28 01:05:25;;;;;;;4.87;2.20;;;9.20;1.00;;;;;;5069570;28;20202;-80
2023/12/28 01:07:52;;;;;;;2.83;1.70;;;9.00;1.00;;;;;;5068164;28;20652;-81
2023/12/28 01:10:19;;;;;;;6.70;1.97;;;9.00;1.00;;;;;;5060125;28;20207;-80
2023/12/28 01:12:45;;;;;;;5.30;2.20;;;9.10;1.00;;;;;;5071696;28;20218;-80
2023/12/28 01:15:14;;;;;;;2.70;2.07;;;9.00;1.00;;;;;;5073438;28;20195;-80
2023/12/28 01:17:40;;;;;;;4.63;2.13;;;8.90;99.90;;;;;;5072370;28;20264;-79
2023/12/28 01:20:08;;;;;;;2.73;1.80;;;8.80;99.90;;;;;;5069993;28;20221;-80
2023/12/28 01:22:35;;;;;;;3.50;2.00;;;8.70;99.90;;;;;;5069850;28;20218;-80
2023/12/28 01:25:02;;;;;;;3.17;2.10;;;8.70;1.00;;;;;;5072429;28;20209;-80
2023/12/28 01:27:28;;;;;;;3.17;2.00;;;8.60;1.00;;;;;;5074739;28;20244;-80
2023/12/28 01:29:56;;;;;;;7.20;2.30;;;8.50;1.00;;;;;;5075397;28;20206;-80
2023/12/28 01:32:24;;;;;;;3.10;2.20;;;8.40;99.90;;;;;;5074084;28;20214;-80
2023/12/28 01:34:51;;;;;;;4.77;2.50;;;8.40;1.00;;;;;;5062231;28;20234;-80
2023/12/28 01:37:17;;;;;;;4.50;2.40;;;8.50;99.90;;;;;;5065989;28;20226;-80
2023/12/28 01:39:44;;;;;;;5.10;2.30;;;8.40;99.90;;;;;;5070275;28;20199;-79
2023/12/28 01:42:11;;;;;;;3.87;2.00;;;8.30;99.90;;;;;;5057893;28;20215;-79
2023/12/28 01:44:38;;;;;;;4.43;2.20;;;8.40;99.90;;;;;;5057976;28;20649;-79
2023/12/28 01:47:05;;;;;;;4.00;2.37;;;8.40;99.90;;;;;;5061610;28;20588;-80
2023/12/28 01:49:35;;;;;;;4.33;2.47;;;8.40;99.90;;;;;;5058678;28;20571;-79
2023/12/28 01:52:03;;;;;;;2.30;2.10;;;8.40;99.90;;;;;;5062491;28;20219;-80
2023/12/28 01:54:30;;;;;;;3.33;2.07;;;8.40;99.90;;;;;;5072547;28;20208;-80
2023/12/28 01:56:58;;;;;;;3.60;1.87;;;8.40;99.90;;;;;;5070008;28;20772;-80
2023/12/28 01:59:24;;;;;;;4.73;2.50;;;8.40;98.50;;;;;;5071050;28;20593;-80
2023/12/28 02:01:51;;;;;;;4.37;2.33;;;8.50;1.00;;;;;;5069757;28;20222;-80
2023/12/28 02:04:25;;;;;;;3.90;2.27;;;8.50;1.00;;;;;;5069897;28;20195;-79
2023/12/28 02:06:56;;;;;;;4.87;2.30;;;8.60;1.00;;;;;;5067553;28;20236;-79
2023/12/28 02:09:23;;;;;;;4.37;2.73;;;8.60;1.00;;;;;;5072739;28;20285;-80
2023/12/28 02:11:50;;;;;;;2.60;2.30;;;8.80;1.00;;;;;;5074298;28;20228;-80
2023/12/28 02:14:18;;;;;;;5.67;2.80;;;8.70;1.00;;;;;;5069716;28;20209;-79
2023/12/28 02:16:50;;;;;;;3.70;2.10;;;8.70;1.00;;;;;;5068249;28;20285;-81
2023/12/28 02:19:26;;;;;;;5.50;3.13;;;8.70;99.90;;;;;;5063826;28;20195;-80
2023/12/28 02:21:56;;;;;;;6.17;2.30;;;8.70;49.40;;;;;;5072092;28;20596;-80
2023/12/28 02:24:23;;;;;;;4.07;2.63;;;8.60;99.90;;;;;;5070186;28;20198;-80
2023/12/28 02:26:51;;;;;;;4.37;2.10;;;8.60;99.90;;;;;;5069026;28;20208;-80
2023/12/28 02:29:18;;;;;;;3.10;2.10;;;8.60;99.90;;;;;;5072794;28;20200;-79
2023/12/28 02:31:51;;;;;;;4.53;2.40;;;8.70;99.90;;;;;;5071343;28;20229;-79
2023/12/28 02:34:26;;;;;;;3.50;2.20;;;8.70;99.90;;;;;;5062129;28;20301;-80
2023/12/28 02:36:54;;;;;;;3.53;2.30;;;8.80;99.90;;;;;;5068920;28;20202;-80
2023/12/28 02:39:23;;;;;;;3.23;2.33;;;8.70;1.00;;;;;;5073666;28;20194;-80
2023/12/28 02:41:51;;;;;;;3.33;2.70;;;8.70;1.00;;;;;;5066451;28;20222;-80
2023/12/28 02:44:20;;;;;;;3.50;2.23;;;8.70;1.00;;;;;;5060613;28;20195;-79
2023/12/28 02:46:46;;;;;;;5.73;2.57;;;8.80;1.00;;;;;;5065641;28;20201;-79
2023/12/28 02:49:15;;;;;;;3.47;2.60;;;8.80;1.00;;;;;;5058834;28;20207;-79
2023/12/28 02:51:42;;;;;;;6.00;2.50;;;8.80;1.00;;;;;;5059642;28;20222;-80
2023/12/28 02:54:09;;;;;;;5.00;2.30;;;8.80;1.00;;;;;;5067036;28;20203;-80
2023/12/28 02:56:36;;;;;;;2.87;2.30;;;8.80;1.00;;;;;;5073640;28;20204;-80
2023/12/28 02:59:04;;;;;;;6.10;2.70;;;8.80;1.00;;;;;;5073716;28;20226;-80
2023/12/28 03:01:31;;;;;;;3.13;2.47;;;8.90;1.00;;;;;;5074144;28;20224;-80
2023/12/28 03:03:57;;;;;;;2.87;2.50;;;8.80;1.00;;;;;;5062135;28;20207;-81
2023/12/28 03:06:24;;;;;;;4.03;2.70;;;8.80;1.00;;;;;;5068141;28;20194;-79
2023/12/28 03:08:51;;;;;;;4.07;2.43;;;8.80;4.20;;;;;;5067497;28;20202;-80
2023/12/28 03:11:20;;;;;;;3.67;2.50;;;8.80;99.90;;;;;;5067464;28;20593;-80
2023/12/28 03:13:48;;;;;;;6.27;2.60;;;8.80;99.90;;;;;;5069940;28;20194;-80
2023/12/28 03:16:16;;;;;;;4.97;2.40;;;8.90;99.90;;;;;;5067644;28;20656;-79
2023/12/28 03:18:43;;;;;;;3.37;2.23;;;8.90;99.90;;;;;;5072389;28;20218;-80
2023/12/28 03:21:09;;;;;;;3.87;2.40;;;9.00;99.90;;;;;;5069187;28;20198;-79
2023/12/28 03:23:36;;;;;;;4.47;2.87;;;8.90;99.90;;;;;;5064872;28;20293;-79
2023/12/28 03:26:03;;;;;;;4.33;2.50;;;8.90;99.90;;;;;;5063774;28;20213;-80
2023/12/28 03:28:30;;;;;;;4.60;2.67;;;8.90;99.90;;;;;;5069502;28;20199;-79
2023/12/28 03:30:58;;;;;;;3.37;2.40;;;8.90;99.90;;;;;;5070050;28;20205;-79
2023/12/28 03:33:27;;;;;;;3.53;2.73;;;8.90;1.00;;;;;;5075894;28;21022;-79
2023/12/28 03:35:54;;;;;;;2.80;2.40;;;8.90;1.00;;;;;;5070472;28;20285;-78
2023/12/28 03:38:20;;;;;;;3.63;2.63;;;8.90;1.00;;;;;;5070472;28;20772;-80
2023/12/28 03:40:49;;;;;;;5.40;2.37;;;8.90;99.90;;;;;;5069254;28;20204;-79
2023/12/28 03:43:16;;;;;;;5.30;2.80;;;9.00;1.00;;;;;;5068150;28;20713;-80
2023/12/28 03:45:42;;;;;;;3.03;2.33;;;9.00;73.00;;;;;;5070219;28;20281;-80
2023/12/28 03:48:09;;;;;;;6.13;2.53;;;9.10;1.00;;;;;;5061391;28;20282;-80
2023/12/28 03:50:37;;;;;;;2.43;2.20;;;9.10;1.00;;;;;;5055541;28;20210;-80
2023/12/28 03:53:04;;;;;;;3.23;2.37;;;9.10;1.00;;;;;;5054931;28;20567;-80
2023/12/28 03:55:31;;;;;;;4.37;2.93;;;9.00;1.00;;;;;;5056881;28;20206;-80
2023/12/28 03:57:58;;;;;;;7.13;3.17;;;9.00;1.00;;;;;;5056933;28;20219;-80
2023/12/28 04:00:25;;;;;;;3.40;2.50;;;9.10;1.00;;;;;;5057528;28;20225;-79
2023/12/28 04:02:52;;;;;;;5.90;2.50;;;9.10;1.00;;;;;;5062374;28;20225;-80
2023/12/28 04:05:19;;;;;;;4.30;2.50;;;9.10;1.00;;;;;;5066363;28;20202;-80
2023/12/28 04:07:47;;;;;;;4.67;2.80;;;9.10;1.00;;;;;;5068330;28;20197;-80
2023/12/28 04:10:14;;;;;;;2.70;2.47;;;9.10;1.00;;;;;;5072119;28;20209;-80
2023/12/28 04:12:41;;;;;;;4.27;2.53;;;9.20;1.00;;;;;;5071377;28;20222;-80
2023/12/28 04:15:08;;;;;;;3.53;2.50;;;9.30;1.00;;;;;;5070246;28;20213;-80
2023/12/28 04:17:35;;;;;;;3.37;2.50;;;9.20;1.00;;;;;;5070460;28;20224;-79
2023/12/28 04:20:01;;;;;;;2.87;2.40;;;9.20;1.00;;;;;;5068011;28;20237;-79
2023/12/28 04:22:28;;;;;;;3.57;2.33;;;9.20;1.00;;;;;;5067057;28;20225;-79
2023/12/28 04:24:56;;;;;;;2.97;2.23;;;9.20;1.00;;;;;;5067024;28;20198;-82
2023/12/28 04:27:23;;;;;;;3.50;2.93;;;9.30;1.00;;;;;;5069713;28;20652;-81
2023/12/28 04:29:50;;;;;;;4.17;2.47;;;9.30;1.00;;;;;;5071806;28;20270;-80
2023/12/28 04:32:17;;;;;;;3.77;2.23;;;9.40;1.00;;;;;;5066993;28;20214;-82
2023/12/28 04:34:44;;;;;;;2.43;2.20;;;9.30;1.00;;;;;;5056228;28;20664;-80
2023/12/28 04:37:11;;;;;;;4.83;2.60;;;9.30;1.00;;;;;;5070484;28;20200;-81
2023/12/28 04:39:38;;;;;;;4.70;2.57;;;9.30;1.00;;;;;;5069319;28;20223;-81
2023/12/28 04:42:06;;;;;;;4.90;2.33;;;9.30;1.00;;;;;;5070529;28;20220;-81
2023/12/28 04:44:38;;;;;;;3.83;2.47;;;9.20;1.00;;;;;;5070462;28;20267;-80
2023/12/28 04:47:05;;;;;;;4.37;2.90;;;9.30;1.00;;;;;;5071658;28;20198;-80
2023/12/28 04:49:32;;;;;;;3.60;2.47;;;9.30;99.90;;;;;;5069463;28;20293;-79
2023/12/28 04:52:00;;;;;;;3.83;2.30;;;9.30;99.90;;;;;;5068771;28;20226;-80
2023/12/28 04:54:27;;;;;;;2.87;2.20;;;9.40;99.90;;;;;;5072160;28;20350;-80
2023/12/28 04:56:54;;;;;;;2.20;1.90;;;9.40;99.90;;;;;;5061304;28;20665;-80
2023/12/28 04:59:22;;;;;;;7.20;2.63;;;9.50;99.90;;;;;;5059555;28;20689;-80
2023/12/28 05:01:49;;;;;;;4.80;2.50;;;9.50;99.90;;;;;;5060808;28;20227;-81
2023/12/28 05:04:16;;;;;;;2.67;2.30;;;9.50;99.90;;;;;;5060014;28;20201;-80
2023/12/28 05:06:42;;;;;;;2.50;2.30;;;9.40;99.90;;;;;;5060917;28;20202;-80
2023/12/28 05:09:09;;;;;;;3.60;1.93;;;9.40;98.80;;;;;;5061995;28;20199;-80
2023/12/28 05:11:36;;;;;;;4.60;2.07;;;9.40;99.90;;;;;;5068640;28;20218;-80
2023/12/28 05:14:03;;;;;;;2.57;2.23;;;9.30;99.90;;;;;;5060778;28;20287;-81
2023/12/28 05:16:31;;;;;;;3.63;2.70;;;9.40;1.00;;;;;;5064678;28;20672;-80
2023/12/28 05:18:58;;;;;;;3.37;2.30;;;9.40;6.80;;;;;;5062639;28;20218;-80
2023/12/28 05:21:25;;;;;;;2.30;1.90;;;9.40;1.00;;;;;;5066998;28;20205;-82
2023/12/28 05:23:51;;;;;;;2.20;2.00;;;9.40;1.00;;;;;;5070050;28;20218;-81
2023/12/28 05:26:18;;;;;;;4.87;2.30;;;9.40;1.00;;;;;;5069088;28;20203;-80
2023/12/28 05:28:45;;;;;;;5.97;2.50;;;9.50;1.00;;;;;;5069687;28;20290;-80
2023/12/28 05:31:13;;;;;;;4.87;2.17;;;9.30;72.10;;;;;;5071406;28;20561;-80
2023/12/28 05:33:42;;;;;;;2.40;2.17;;;9.40;48.10;;;;;;5071282;28;20241;-80
2023/12/28 05:36:09;;;;;;;4.30;2.33;;;9.40;54.50;;;;;;5070613;28;20202;-80
2023/12/28 05:38:36;;;;;;;3.60;2.30;;;9.40;1.00;;;;;;5066294;28;20593;-79
2023/12/28 05:41:03;;;;;;;2.77;1.90;;;9.30;65.40;;;;;;5064306;28;20199;-80
2023/12/28 05:43:29;;;;;;;2.83;2.10;;;9.40;12.70;;;;;;5063548;28;20233;-80
2023/12/28 05:45:56;;;;;;;4.17;2.47;;;9.40;16.00;;;;;;5071865;28;20198;-80
2023/12/28 05:48:23;;;;;;;3.37;2.00;;;9.40;52.70;;;;;;5068618;28;20195;-80
2023/12/28 05:50:51;;;;;;;3.10;2.00;;;9.30;93.60;;;;;;5072353;28;20237;-80
2023/12/28 05:53:18;;;;;;;4.17;2.20;;;9.20;99.90;;;;;;5072730;28;20253;-80
2023/12/28 05:55:45;;;;;;;6.83;2.00;;;9.20;99.90;;;;;;5071871;28;20198;-80
2023/12/28 05:58:12;;;;;;;5.13;2.27;;;9.30;70.60;;;;;;5071343;28;20269;-80
2023/12/28 06:00:39;;;;;;;2.83;1.97;;;9.30;95.40;;;;;;5069389;28;20209;-80
2023/12/28 06:03:06;;;;;;;4.47;2.10;;;9.40;30.40;;;;;;5062865;28;20594;-81
2023/12/28 06:05:33;;;;;;;4.67;2.27;;;9.40;1.00;;;;;;5066093;28;20207;-80
2023/12/28 06:08:01;;;;;;;5.63;2.20;;;9.40;1.00;;;;;;5056557;28;20210;-80
2023/12/28 06:10:28;;;;;;;4.63;2.30;;;9.50;1.00;;;;;;5068082;28;20240;-80
2023/12/28 06:12:55;;;;;;;6.10;2.43;;;9.50;1.00;;;;;;5066133;28;20222;-80
2023/12/28 06:15:22;;;;;;;5.37;3.00;;;9.50;1.00;;;;;;5059753;28;20288;-80
2023/12/28 06:17:49;;;;;;;2.43;1.87;;;9.50;1.00;;;;;;5069363;28;20237;-80
2023/12/28 06:20:16;;;;;;;2.03;1.70;;;9.50;1.00;;;;;;5061047;28;20210;-79
2023/12/28 06:22:43;;;;;;;2.37;2.00;;;9.50;1.00;;;;;;5072387;28;20233;-80
2023/12/28 06:25:13;;;;;;;2.60;1.90;;;9.60;1.00;;;;;;5063694;28;20549;-80
2023/12/28 06:27:39;;;;;;;5.50;2.23;;;9.60;1.00;;;;;;5065629;28;20203;-80
2023/12/28 06:30:07;;;;;;;4.00;2.30;;;9.60;1.00;;;;;;5069042;28;20716;-79
2023/12/28 06:32:34;;;;;;;6.57;1.90;;;9.50;1.00;;;;;;5063170;28;20218;-80
2023/12/28 06:35:01;;;;;;;3.47;1.80;;;9.60;1.00;;;;;;5069975;28;20199;-81
2023/12/28 06:37:28;;;;;;;3.60;2.00;;;9.60;1.00;;;;;;5070639;28;20202;-80
2023/12/28 06:39:55;;;;;;;3.97;1.83;;;9.50;1.00;;;;;;5066631;28;20222;-79
2023/12/28 06:42:23;;;;;;;3.63;2.07;;;9.50;1.00;;;;;;5068806;28;20688;-80
2023/12/28 06:44:50;;;;;;;3.00;1.70;;;9.60;1.00;;;;;;5066662;28;20206;-80
2023/12/28 06:47:17;;;;;;;2.90;1.83;;;9.60;1.00;;;;;;5068085;28;20738;-80
2023/12/28 06:49:44;;;;;;;3.97;2.03;;;9.60;1.00;;;;;;5068430;28;20226;-81
2023/12/28 06:52:10;;;;;;;2.73;2.03;;;9.60;1.00;;;;;;5068602;28;20217;-81
2023/12/28 06:54:37;;;;;;;3.43;1.83;;;9.50;1.00;;;;;;5068441;28;20209;-80
2023/12/28 06:57:05;;;;;;;2.33;1.67;;;9.50;1.00;;;;;;5070718;28;20464;-81
2023/12/28 06:59:33;;;;;;;3.67;1.90;;;9.50;1.00;;;;;;5071759;28;20232;-81
2023/12/28 07:02:00;;;;;;;3.27;1.87;;;9.50;1.00;;;;;;5062154;28;20222;-83
2023/12/28 07:04:29;;;;;;;2.13;1.70;;;9.50;1.00;;;;;;5071312;28;20206;-81
2023/12/28 07:06:55;;;;;;;2.67;1.90;;;9.60;1.00;;;;;;5065115;28;20778;-81
2023/12/28 07:09:22;;;;;;;5.03;2.03;;;9.50;1.00;;;;;;5068488;28;20208;-80
2023/12/28 07:11:49;;;;;;;1.80;1.53;;;9.50;1.00;;;;;;5064103;28;21790;-80
2023/12/28 07:14:16;;;;;;;2.40;1.90;;;9.50;1.00;;;;;;5062682;28;20666;-81
2023/12/28 07:16:45;;;;;;;1.83;1.57;;;9.50;1.00;;;;;;5059872;28;20229;-80
2023/12/28 07:19:12;;;;;;;3.17;1.90;;;9.60;1.00;;;;;;5064332;28;20219;-80
2023/12/28 07:21:39;;;;;;;1.70;1.60;;;9.50;1.00;;;;;;5065757;28;20627;-80
2023/12/28 07:24:06;;;;;;;3.33;1.67;;;9.60;1.00;;;;;;5061317;28;20198;-81
2023/12/28 07:26:33;;;;;;;3.53;2.00;;;9.50;1.00;;;;;;5068904;28;20206;-80
2023/12/28 07:29:00;;;;;;;2.53;1.60;;;9.50;1.00;;;;;;5070520;28;20584;-81
2023/12/28 07:31:27;;;;;;;2.80;1.80;;;9.50;1.00;;;;;;5066121;28;20233;-80
2023/12/28 07:33:55;;;;;;;3.03;2.00;;;9.50;1.00;;;;;;5070604;28;20210;-81
2023/12/28 07:36:22;;;;;;;2.93;1.87;;;9.40;1.00;;;;;;5069641;28;20354;-80
2023/12/28 07:38:49;;;;;;;4.67;2.27;;;9.40;1.00;;;;;;5070997;28;20228;-81
2023/12/28 07:41:16;;;;;;;4.73;2.00;;;9.50;1.00;;;;;;5065146;28;20194;-81
2023/12/28 07:43:43;;;;;;;2.93;1.93;;;9.60;99.90;;;;;;5067173;28;20206;-82
2023/12/28 07:46:10;;;;;;;4.27;1.77;;;9.50;99.90;;;;;;5069331;28;20208;-82
2023/12/28 07:48:36;;;;;;;4.13;1.97;;;9.50;99.90;;;;;;5067668;28;20616;-80
2023/12/28 07:51:07;;;;;;;5.77;2.47;;;9.60;99.90;;;;;;5063441;28;20589;-81
2023/12/28 07:53:34;;;;;;;3.70;2.20;;;9.60;99.90;;;;;;5065391;28;20296;-80
2023/12/28 07:56:01;;;;;;;6.00;2.33;;;9.50;99.90;;;;;;5066798;28;20212;-80
2023/12/28 07:58:28;;;;;;;2.97;2.13;;;9.50;99.90;;;;;;5072165;28;20206;-79
2023/12/28 08:00:54;;;;;;;2.33;1.70;;;9.50;99.90;;;;;;5074534;28;20202;-79
2023/12/28 08:03:21;;;;;;;3.93;1.57;;;9.50;99.90;;;;;;5072632;28;20246;-80
2023/12/28 08:05:48;;;;;;;2.60;1.80;;;9.50;99.90;;;;;;5072326;28;20202;-80
2023/12/28 08:08:16;;;;;;;2.70;1.70;;;9.50;99.90;;;;;;5070665;28;20220;-80
2023/12/28 08:10:43;;;;;;;4.53;1.90;;;9.60;99.90;;;;;;5068959;28;20289;-80
2023/12/28 08:13:10;;;;;;;2.37;1.70;;;9.60;99.90;;;;;;5065145;28;20221;-79
2023/12/28 08:15:37;;;;;;;3.73;2.37;;;9.50;99.90;;;;;;5056265;28;20229;-79
2023/12/28 08:18:04;;;;;;;4.37;1.90;;;9.50;99.90;;;;;;5067901;28;20237;-81
2023/12/28 08:20:31;;;;;;;2.53;1.87;;;9.50;99.90;;;;;;5060384;28;20223;-80
2023/12/28 08:22:57;;;;;;;2.33;1.50;;;9.80;99.90;;;;;;5060971;28;20630;-80
2023/12/28 08:25:25;;;;;;;2.60;1.80;;;9.70;99.90;;;;;;5067977;28;20301;-80
2023/12/28 08:27:52;;;;;;;3.23;1.83;;;9.70;99.90;;;;;;5066541;28;20293;-80
2023/12/28 08:30:19;;;;;;;2.77;2.17;;;9.70;99.90;;;;;;5058612;28;20568;-80
2023/12/28 08:32:46;;;;;;;5.07;1.70;;;9.70;99.90;;;;;;5068363;28;20226;-80
2023/12/28 08:35:13;;;;;;;2.67;1.97;;;9.70;99.90;;;;;;5065283;28;20198;-80
2023/12/28 08:37:40;;;;;;;3.57;1.80;;;9.80;99.90;;;;;;5068444;28;20264;-79
2023/12/28 08:40:08;;;;;;;2.90;1.60;;;9.90;45.10;;;;;;5070292;28;20569;-80
2023/12/28 08:42:36;;;;;;;8.57;2.43;;;9.80;57.70;;;;;;5060501;28;20250;-81
2023/12/28 08:45:03;;;;;;;2.80;1.77;;;9.80;22.60;;;;;;5069158;28;20290;-81
2023/12/28 08:47:30;;;;;;;3.20;1.80;;;9.90;1.00;;;;;;5072668;28;20198;-82
2023/12/28 08:49:57;;;;;;;2.43;1.63;;;9.90;1.00;;;;;;5069703;28;20234;-80
2023/12/28 08:52:24;;;;;;;3.70;1.80;;;9.90;1.00;;;;;;5073109;28;20230;-81
2023/12/28 08:54:50;;;;;;;3.10;1.80;;;9.90;1.00;;;;;;5069786;28;20210;-80
2023/12/28 08:57:17;;;;;;;2.47;1.77;;;9.90;1.00;;;;;;5071701;28;20940;-80
2023/12/28 08:59:45;;;;;;;3.93;2.07;;;9.90;1.00;;;;;;5073299;28;20223;-81
2023/12/28 09:02:12;;;;;;;3.67;1.97;;;10.00;1.00;;;;;;5073165;28;20696;-80
2023/12/28 09:04:39;;;;;;;1.80;1.70;;;10.00;1.00;;;;;;5068814;28;20580;-81
2023/12/28 09:07:06;;;;;;;3.63;1.43;;;10.00;1.00;;;;;;5073671;28;20633;-81
2023/12/28 09:09:33;;;;;;;2.07;1.67;;;10.00;1.00;;;;;;5074757;28;20207;-84
2023/12/28 09:12:00;;;;;;;4.13;2.03;;;10.00;1.00;;;;;;5068748;28;21203;-80
2023/12/28 09:14:27;;;;;;;5.20;2.20;;;10.10;1.00;;;;;;5074861;28;20209;-80
2023/12/28 09:16:55;;;;;;;4.17;2.10;;;10.20;1.00;;;;;;5070875;28;20222;-81
2023/12/28 09:19:22;;;;;;;2.30;2.07;;;10.20;1.00;;;;;;5069160;28;20561;-82
2023/12/28 09:21:49;;;;;;;5.13;2.03;;;10.20;1.00;;;;;;5072487;28;20218;-84
2023/12/28 09:24:18;;;;;;;3.93;2.00;;;10.30;1.00;;;;;;5058902;28;20235;-81
2023/12/28 09:26:45;;;;;;;2.23;1.77;;;10.30;1.00;;;;;;5064963;28;20203;-82
2023/12/28 09:29:12;;;;;;;2.97;1.77;;;10.40;1.00;;;;;;5061988;28;20218;-80
2023/12/28 09:31:40;;;;;;;4.27;2.03;;;10.40;1.00;;;;;;5069494;28;20223;-80
2023/12/28 09:34:08;;;;;;;4.13;1.80;;;10.50;1.00;;;;;;5068171;28;20202;-80
2023/12/28 09:36:35;;;;;;;3.67;2.00;;;10.50;1.00;;;;;;5068213;28;20678;-81
2023/12/28 09:39:03;;;;;;;6.03;2.10;;;10.70;1.00;;;;;;5069201;28;20203;-82
2023/12/28 09:41:35;;;;;;;3.67;1.80;;;10.80;1.00;;;;;;5067034;28;21324;-82
2023/12/28 09:44:08;;;;;;;3.40;1.53;;;11.00;1.00;;;;;;5065579;28;20575;-80
2023/12/28 09:46:35;;;;;;;4.13;2.00;;;11.10;1.00;;;;;;5066763;28;20287;-81
2023/12/28 09:49:03;;;;;;;3.57;1.80;;;10.90;1.00;;;;;;5065638;28;20671;-80
2023/12/28 09:51:31;;;;;;;7.47;2.20;;;10.90;1.00;;;;;;5066385;28;20614;-80
2023/12/28 09:53:58;;;;;;;2.73;1.53;;;10.90;1.00;;;;;;5068000;28;20230;-81
2023/12/28 09:56:25;;;;;;;6.27;2.10;;;11.10;1.00;;;;;;5071326;28;20259;-81
2023/12/28 09:58:53;;;;;;;5.83;2.20;;;11.10;1.00;;;;;;5067969;28;20648;-81
2023/12/28 10:01:21;;;;;;;3.50;2.07;;;11.10;1.00;;;;;;5065571;28;20228;-80
2023/12/28 10:03:48;;;;;;;4.43;2.10;;;11.10;1.00;;;;;;5065020;28;20304;-82
2023/12/28 10:06:16;;;;;;;6.10;2.20;;;11.10;1.00;;;;;;5069552;28;20606;-80
2023/12/28 10:08:48;;;;;;;3.80;2.00;;;11.20;1.00;;;;;;5071994;28;20657;-80
2023/12/28 10:11:16;;;;;;;5.80;2.50;;;11.10;1.00;;;;;;5065552;28;20206;-80
2023/12/28 10:13:43;;;;;;;3.47;2.23;;;11.20;1.00;;;;;;5073371;28;20218;-80
2023/12/28 10:16:11;;;;;;;3.20;2.10;;;11.10;1.00;;;;;;5073256;28;20612;-82
2023/12/28 10:18:41;;;;;;;4.30;1.73;;;11.10;1.00;;;;;;5068954;28;20213;-81
2023/12/28 10:21:08;;;;;;;3.50;1.80;;;11.00;1.00;;;;;;5067163;28;20217;-81
2023/12/28 10:23:35;;;;;;;3.23;1.97;;;11.00;1.00;;;;;;5063661;28;20289;-84
2023/12/28 10:26:05;;;;;;;3.73;1.97;;;11.00;1.00;;;;;;5069350;28;20297;-81
2023/12/28 10:28:33;;;;;;;2.77;1.57;;;11.00;1.00;;;;;;5068772;28;20209;-82
2023/12/28 10:31:00;;;;;;;4.53;1.90;;;11.20;1.00;;;;;;5065058;28;20250;-80
2023/12/28 10:33:26;;;;;;;6.77;1.93;;;11.30;1.00;;;;;;5067025;28;20236;-80
2023/12/28 10:35:56;;;;;;;5.43;1.80;;;11.40;1.00;;;;;;5067080;28;20206;-80
2023/12/28 10:38:25;;;;;;;5.67;1.90;;;11.60;1.00;;;;;;5073042;28;20205;-79
2023/12/28 10:40:53;;;;;;;5.13;1.97;;;11.50;1.00;;;;;;5069046;28;20223;-79
2023/12/28 10:43:23;;;;;;;4.30;2.10;;;11.50;1.00;;;;;;5061339;28;20221;-80
2023/12/28 10:45:51;;;;;;;3.60;1.93;;;11.60;1.00;;;;;;5071380;28;20204;-80
2023/12/28 10:48:29;;;;;;;4.77;2.17;;;11.60;1.00;;;;;;5068226;28;20218;-82
2023/12/28 10:50:58;;;;;;;4.10;1.60;;;11.60;1.00;;;;;;5063597;28;20206;-79
2023/12/28 10:53:34;;;;;;;8.57;2.40;;;11.60;1.00;;;;;;5065837;28;20579;-82
2023/12/28 10:56:15;;;;;;;6.50;2.07;;;11.60;1.00;;;;;;5064725;28;20206;-80
2023/12/28 10:58:49;;;;;;;5.70;2.67;;;11.40;1.00;;;;;;5059348;28;20212;-81
2023/12/28 11:01:22;;;;;;;3.40;1.90;;;11.50;1.00;;;;;;5065378;28;20270;-79
2023/12/28 11:04:03;;;;;;;6.50;2.37;;;11.40;1.00;;;;;;5070063;28;20208;-81
2023/12/28 11:06:31;;;;;;;5.77;1.93;;;11.40;1.00;;;;;;5071280;28;20653;-81
2023/12/28 11:09:00;;;;;;;2.37;1.40;;;11.40;1.00;;;;;;5066594;28;20258;-80
2023/12/28 11:11:28;;;;;;;6.07;2.20;;;11.40;1.00;;;;;;5069564;28;20282;-81
2023/12/28 11:14:00;;;;;;;7.30;2.00;;;11.40;1.00;;;;;;5069776;28;20211;-80
2023/12/28 11:16:28;;;;;;;6.60;2.10;;;11.40;1.00;;;;;;5072057;28;20212;-80
2023/12/28 11:18:56;;;;;;;6.17;1.97;;;11.40;1.00;;;;;;5070000;28;20294;-82
2023/12/28 11:21:24;;;;;;;6.30;2.10;;;11.30;1.00;;;;;;5069877;28;20704;-83
2023/12/28 11:23:51;;;;;;;4.90;2.50;;;11.30;1.00;;;;;;5066639;28;20578;-81
2023/12/28 11:26:18;;;;;;;3.67;1.93;;;11.30;1.00;;;;;;5067478;28;20285;-82
2023/12/28 11:28:45;;;;;;;1.67;1.43;;;11.30;1.00;;;;;;5066816;28;20236;-79
2023/12/28 11:31:15;;;;;;;4.87;2.03;;;11.30;1.00;;;;;;5071773;28;20237;-80
2023/12/28 11:33:46;;;;;;;6.13;2.00;;;11.30;1.00;;;;;;5057620;28;20203;-81
2023/12/28 11:36:22;;;;;;;5.87;1.60;;;11.30;1.00;;;;;;5059840;28;20263;-81
2023/12/28 11:38:51;;;;;;;4.70;1.50;;;11.20;1.00;;;;;;5074542;28;20198;-82
2023/12/28 11:41:20;;;;;;;6.17;1.80;;;11.30;1.00;;;;;;5060842;28;20226;-81
2023/12/28 11:43:54;;;;;;;7.83;2.43;;;11.40;1.00;;;;;;5062504;28;20211;-83
2023/12/28 11:46:23;;;;;;;5.53;1.97;;;11.20;1.00;;;;;;5063946;28;20206;-81
2023/12/28 11:48:50;;;;;;;6.57;1.80;;;11.30;1.00;;;;;;5069312;28;20670;-83
2023/12/28 11:51:18;;;;;;;6.43;2.17;;;11.30;1.00;;;;;;5069240;28;20209;-84
2023/12/28 11:53:47;;;;;;;9.23;2.90;;;11.20;1.00;;;;;;5069276;28;20206;-82
2023/12/28 11:56:17;;;;;;;6.53;1.70;;;11.40;1.00;;;;;;5067222;28;20202;-82
2023/12/28 11:58:45;;;;;;;8.67;2.50;;;11.30;1.00;;;;;;5068043;28;20202;-83
2023/12/28 12:01:12;;;;;;;8.40;2.53;;;11.30;1.00;;;;;;5059441;28;20222;-83
2023/12/28 12:03:41;;;;;;;8.80;2.33;;;11.30;1.00;;;;;;5069142;28;20207;-81
2023/12/28 12:06:07;;;;;;;4.43;1.90;;;11.30;1.00;;;;;;5072769;28;20209;-81
2023/12/28 12:08:35;;;;;;;8.07;2.00;;;11.40;1.00;;;;;;5072286;28;20246;-82
2023/12/28 12:11:03;;;;;;;4.70;2.10;;;11.50;99.90;;;;;;5067869;28;20217;-81
2023/12/28 12:13:30;;;;;;;6.20;2.00;;;11.50;99.90;;;;;;5070201;28;20330;-84
2023/12/28 12:15:57;;;;;;;6.40;2.30;;;11.50;99.90;;;;;;5072956;28;20224;-81
2023/12/28 12:18:24;;;;;;;8.63;2.07;;;11.60;99.90;;;;;;5071174;28;20690;-82
2023/12/28 12:20:52;;;;;;;7.00;2.30;;;11.60;99.90;;;;;;5064788;28;20223;-82
2023/12/28 12:23:19;;;;;;;7.63;2.03;;;11.50;99.90;;;;;;5069962;28;20228;-82
2023/12/28 12:25:46;;;;;;;6.53;2.03;;;11.50;99.90;;;;;;5071518;28;20203;-83
2023/12/28 12:28:15;;;;;;;6.97;1.90;;;11.50;99.90;;;;;;5066899;28;20213;-82
2023/12/28 12:30:41;;;;;;;4.20;1.67;;;11.60;99.90;;;;;;5074649;28;20230;-81
2023/12/28 12:33:09;;;;;;;3.60;1.80;;;11.60;99.90;;;;;;5074415;28;20229;-81
2023/12/28 12:35:36;;;;;;;6.37;2.07;;;11.60;99.90;;;;;;5071317;28;20629;-82
2023/12/28 12:38:05;;;;;;;9.77;2.50;;;11.60;99.90;;;;;;5073584;28;20202;-82
2023/12/28 12:40:33;;;;;;;5.97;1.70;;;11.60;99.90;;;;;;5073408;28;20244;-81
2023/12/28 12:43:01;;;;;;;8.63;1.73;;;11.60;99.90;;;;;;5069551;28;20645;-83
2023/12/28 12:45:28;;;;;;;6.00;1.60;;;11.60;99.90;;;;;;5073517;28;20198;-82
2023/12/28 12:47:55;;;;;;;6.07;1.37;;;11.70;99.90;;;;;;5075024;28;20217;-82
2023/12/28 12:50:22;;;;;;;8.33;2.07;;;11.80;99.90;;;;;;5075508;28;20210;-82
2023/12/28 12:52:49;;;;;;;8.20;2.43;;;11.60;99.90;;;;;;5070307;28;20223;-84
2023/12/28 12:55:17;;;;;;;5.00;1.73;;;11.60;99.90;;;;;;5069164;28;20202;-83
2023/12/28 12:57:44;;;;;;;5.03;1.63;;;11.60;99.90;;;;;;5069762;28;20200;-82
2023/12/28 13:00:11;;;;;;;8.97;2.10;;;11.70;99.90;;;;;;5065687;28;20230;-83
2023/12/28 13:02:38;;;;;;;5.33;1.77;;;11.70;99.90;;;;;;5075172;28;20596;-81